createdAt,value
2023-07-23T00:01:08.800Z,19.32
2023-07-23T00:03:35.326Z,19.28
2023-07-23T00:06:01.899Z,19.27
2023-07-23T00:08:28.522Z,19.20
2023-07-23T00:10:58.488Z,19.18
2023-07-23T00:13:25.713Z,19.16
2023-07-23T00:15:52.276Z,19.14
2023-07-23T00:18:18.785Z,19.12
2023-07-23T00:20:45.539Z,19.11
2023-07-23T00:23:12.162Z,19.08
2023-07-23T00:25:38.653Z,19.07
2023-07-23T00:28:05.327Z,19.03
2023-07-23T00:30:31.890Z,19.04
2023-07-23T00:32:58.429Z,19.03
2023-07-23T00:35:24.982Z,19.01
2023-07-23T00:37:51.480Z,19.02
2023-07-23T00:40:18.067Z,19.01
2023-07-23T00:42:44.595Z,19.01
2023-07-23T00:45:11.205Z,19.01
2023-07-23T00:47:37.916Z,18.97
2023-07-23T00:50:04.946Z,18.98
2023-07-23T00:52:32.123Z,18.97
2023-07-23T00:54:58.914Z,18.95
2023-07-23T00:57:25.634Z,18.94
2023-07-23T00:59:52.281Z,18.92
2023-07-23T01:02:18.915Z,18.91
2023-07-23T01:04:45.456Z,18.89
2023-07-23T01:07:13.003Z,18.87
2023-07-23T01:09:40.925Z,18.85
2023-07-23T01:12:08.608Z,18.83
2023-07-23T01:14:36.160Z,18.80
2023-07-23T01:17:03.380Z,18.78
2023-07-23T01:19:29.872Z,18.76
2023-07-23T01:22:16.617Z,18.74
2023-07-23T01:24:43.105Z,18.71
2023-07-23T01:27:09.689Z,18.69
2023-07-23T01:29:36.243Z,18.67
2023-07-23T01:32:03.082Z,18.66
2023-07-23T01:34:30.818Z,18.67
2023-07-23T01:36:57.448Z,18.67
2023-07-23T01:39:24.034Z,18.68
2023-07-23T01:41:50.651Z,18.66
2023-07-23T01:44:17.842Z,18.68
2023-07-23T01:46:44.339Z,18.68
2023-07-23T01:49:10.907Z,18.67
2023-07-23T01:51:37.407Z,18.65
2023-07-23T01:54:04.069Z,18.64
2023-07-23T01:56:30.550Z,18.62
2023-07-23T01:58:56.981Z,18.61
2023-07-23T02:01:24.115Z,18.58
2023-07-23T02:03:50.707Z,18.56
2023-07-23T02:06:17.301Z,18.52
2023-07-23T02:08:43.824Z,18.46
2023-07-23T02:11:10.288Z,18.43
2023-07-23T02:13:36.899Z,18.36
2023-07-23T02:16:04.056Z,18.34
2023-07-23T02:18:31.044Z,18.27
2023-07-23T02:20:57.642Z,18.24
2023-07-23T02:23:25.011Z,18.20
2023-07-23T02:25:51.694Z,18.14
2023-07-23T02:28:18.290Z,18.11
2023-07-23T02:30:44.989Z,18.07
2023-07-23T02:33:11.586Z,18.00
2023-07-23T02:35:38.527Z,17.96
2023-07-23T02:38:05.525Z,17.93
2023-07-23T02:40:34.378Z,17.88
2023-07-23T02:43:02.203Z,17.84
2023-07-23T02:45:30.341Z,17.80
2023-07-23T02:47:56.936Z,17.76
2023-07-23T02:50:24.165Z,17.70
2023-07-23T02:52:50.708Z,17.67
2023-07-23T02:55:17.537Z,17.65
2023-07-23T02:57:44.233Z,17.61
2023-07-23T03:00:12.700Z,17.59
2023-07-23T03:02:39.312Z,17.57
2023-07-23T03:05:06.436Z,17.56
2023-07-23T03:07:33.674Z,17.49
2023-07-23T03:10:00.269Z,17.50
2023-07-23T03:12:26.750Z,17.48
2023-07-23T03:14:54.475Z,17.46
2023-07-23T03:17:21.001Z,17.46
2023-07-23T03:19:47.533Z,17.43
2023-07-23T03:22:14.342Z,17.42
2023-07-23T03:24:40.951Z,17.42
2023-07-23T03:27:07.451Z,17.42
2023-07-23T03:29:34.043Z,17.43
2023-07-23T03:32:00.780Z,17.44
2023-07-23T03:34:27.386Z,17.43
2023-07-23T03:36:53.929Z,17.42
2023-07-23T03:39:20.405Z,17.40
2023-07-23T03:41:50.648Z,17.39
2023-07-23T03:44:17.119Z,17.40
2023-07-23T03:47:04.543Z,17.40
2023-07-23T03:49:31.158Z,17.41
2023-07-23T03:51:59.692Z,17.43
2023-07-23T03:54:26.664Z,17.47
2023-07-23T03:56:54.308Z,17.50
2023-07-23T03:59:20.801Z,17.52
2023-07-23T04:01:47.320Z,17.56
2023-07-23T04:04:14.162Z,17.58
2023-07-23T04:06:40.724Z,17.61
2023-07-23T04:09:07.203Z,17.63
2023-07-23T04:11:33.663Z,17.66
2023-07-23T04:14:00.139Z,17.66
2023-07-23T04:16:26.631Z,17.67
2023-07-23T04:18:54.512Z,17.68
2023-07-23T04:21:23.097Z,17.71
2023-07-23T04:23:51.492Z,17.73
2023-07-23T04:26:19.489Z,17.76
2023-07-23T04:28:46.718Z,17.81
2023-07-23T04:31:13.864Z,17.83
2023-07-23T04:33:40.703Z,17.87
2023-07-23T04:36:08.668Z,17.92
2023-07-23T04:38:36.245Z,17.96
2023-07-23T04:41:03.077Z,18.00
2023-07-23T04:43:29.735Z,18.06
2023-07-23T04:45:56.240Z,18.13
2023-07-23T04:48:22.938Z,18.17
2023-07-23T04:51:10.079Z,18.24
2023-07-23T04:53:36.645Z,18.33
2023-07-23T04:56:05.390Z,18.45
2023-07-23T04:58:33.022Z,18.57
2023-07-23T05:01:05.997Z,18.74
2023-07-23T05:03:32.716Z,18.88
2023-07-23T05:06:03.947Z,19.01
2023-07-23T05:08:30.502Z,19.12
2023-07-23T05:11:01.953Z,19.22
2023-07-23T05:13:29.572Z,19.29
2023-07-23T05:15:58.354Z,19.33
2023-07-23T05:18:25.234Z,19.41
2023-07-23T05:20:51.741Z,19.44
2023-07-23T05:23:19.492Z,19.49
2023-07-23T05:25:46.300Z,19.51
2023-07-23T05:28:13.129Z,19.51
2023-07-23T05:30:39.952Z,19.55
2023-07-23T05:33:08.704Z,19.57
2023-07-23T05:35:35.966Z,19.61
2023-07-23T05:38:02.442Z,19.65
2023-07-23T05:40:31.440Z,19.62
2023-07-23T05:43:00.571Z,19.64
2023-07-23T05:45:27.141Z,19.66
2023-07-23T05:47:53.648Z,19.67
2023-07-23T05:50:20.150Z,19.69
2023-07-23T05:52:46.663Z,19.71
2023-07-23T05:55:13.123Z,19.76
2023-07-23T05:57:39.732Z,19.80
2023-07-23T06:00:07.008Z,19.86
2023-07-23T06:02:33.537Z,19.87
2023-07-23T06:04:59.985Z,19.90
2023-07-23T06:07:26.489Z,19.86
2023-07-23T06:09:53.025Z,19.89
2023-07-23T06:12:19.700Z,19.89
2023-07-23T06:14:46.367Z,19.90
2023-07-23T06:17:12.899Z,19.93
2023-07-23T06:19:39.371Z,20.02
2023-07-23T06:22:06.130Z,19.93
2023-07-23T06:24:32.702Z,19.98
2023-07-23T06:26:59.267Z,20.02
2023-07-23T06:29:26.868Z,20.03
2023-07-23T06:31:53.729Z,20.04
2023-07-23T06:34:20.842Z,20.04
2023-07-23T06:36:47.716Z,20.02
2023-07-23T06:39:14.788Z,20.06
2023-07-23T06:41:41.934Z,20.00
2023-07-23T06:44:08.479Z,20.04
2023-07-23T06:46:35.072Z,20.04
2023-07-23T06:49:01.704Z,20.04
2023-07-23T06:51:28.339Z,19.99
2023-07-23T06:53:55.002Z,20.02
2023-07-23T06:56:21.661Z,20.04
2023-07-23T06:58:48.720Z,20.04
2023-07-23T07:01:15.190Z,20.03
2023-07-23T07:03:41.807Z,20.07
2023-07-23T07:06:08.311Z,20.09
2023-07-23T07:08:34.946Z,20.11
2023-07-23T07:11:03.870Z,20.12
2023-07-23T07:13:31.767Z,20.10
2023-07-23T07:15:59.009Z,20.06
2023-07-23T07:18:26.789Z,20.13
2023-07-23T07:21:01.083Z,20.13
2023-07-23T07:23:28.925Z,20.16
2023-07-23T07:25:59.492Z,20.20
2023-07-23T07:28:26.625Z,20.24
2023-07-23T07:31:00.811Z,20.27
2023-07-23T07:33:28.367Z,20.31
2023-07-23T07:35:58.979Z,20.38
2023-07-23T07:38:26.763Z,20.43
2023-07-23T07:40:53.846Z,20.43
2023-07-23T07:43:20.427Z,20.47
2023-07-23T07:45:51.370Z,20.47
2023-07-23T07:48:21.793Z,20.57
2023-07-23T07:50:57.878Z,20.61
2023-07-23T07:53:24.462Z,20.59
2023-07-23T07:55:50.981Z,20.73
2023-07-23T07:58:18.353Z,20.82
2023-07-23T08:00:45.084Z,20.82
2023-07-23T08:03:12.091Z,20.85
2023-07-23T08:05:39.133Z,20.92
2023-07-23T08:08:07.127Z,20.94
2023-07-23T08:10:35.496Z,20.98
2023-07-23T08:13:03.594Z,21.02
2023-07-23T08:15:32.740Z,21.01
2023-07-23T08:18:00.450Z,21.05
2023-07-23T08:20:32.164Z,21.08
2023-07-23T08:22:59.000Z,21.12
2023-07-23T08:25:25.857Z,21.10
2023-07-23T08:27:54.089Z,21.13
2023-07-23T08:30:22.052Z,21.09
2023-07-23T08:32:49.575Z,21.17
2023-07-23T08:35:16.380Z,21.15
2023-07-23T08:37:43.195Z,21.23
2023-07-23T08:40:10.314Z,21.25
2023-07-23T08:42:54.888Z,21.26
2023-07-23T08:45:42.742Z,21.24
2023-07-23T08:48:15.601Z,21.19
2023-07-23T08:50:44.720Z,21.19
2023-07-23T08:53:13.228Z,21.26
2023-07-23T08:55:45.034Z,21.31
2023-07-23T08:58:17.003Z,21.34
2023-07-23T09:00:45.146Z,21.40
2023-07-23T09:03:13.363Z,21.39
2023-07-23T09:05:40.715Z,21.49
2023-07-23T09:08:08.520Z,21.53
2023-07-23T09:10:35.096Z,21.54
2023-07-23T09:13:12.336Z,21.60
2023-07-23T09:15:38.887Z,21.62
2023-07-23T09:18:05.483Z,21.62
2023-07-23T09:20:32.214Z,21.58
2023-07-23T09:23:06.139Z,21.62
2023-07-23T09:25:33.260Z,21.64
2023-07-23T09:27:59.832Z,21.71
2023-07-23T09:30:26.998Z,21.75
2023-07-23T09:33:03.084Z,21.78
2023-07-23T09:35:33.675Z,21.77
2023-07-23T09:38:01.222Z,21.60
2023-07-23T09:40:38.960Z,21.44
2023-07-23T09:43:06.340Z,21.43
2023-07-23T09:45:37.600Z,21.42
2023-07-23T09:48:15.201Z,21.33
2023-07-23T09:50:42.517Z,21.35
2023-07-23T09:53:10.073Z,21.24
2023-07-23T09:55:38.222Z,21.29
2023-07-23T09:58:07.314Z,21.31
2023-07-23T10:00:37.341Z,21.28
2023-07-23T10:03:06.649Z,21.31
2023-07-23T10:05:36.410Z,21.35
2023-07-23T10:08:07.123Z,21.46
2023-07-23T10:10:33.626Z,21.57
2023-07-23T10:13:00.199Z,21.65
2023-07-23T10:15:27.685Z,21.68
2023-07-23T10:18:00.300Z,21.73
2023-07-23T10:20:29.739Z,21.71
2023-07-23T10:22:57.166Z,21.70
2023-07-23T10:25:30.649Z,21.78
2023-07-23T10:27:59.255Z,21.80
2023-07-23T10:30:26.728Z,21.75
2023-07-23T10:33:12.016Z,21.80
2023-07-23T10:35:57.284Z,21.82
2023-07-23T10:38:24.746Z,21.84
2023-07-23T10:40:51.668Z,21.82
2023-07-23T10:43:18.815Z,21.83
2023-07-23T10:46:01.546Z,21.84
2023-07-23T10:48:51.263Z,21.87
2023-07-23T10:51:25.377Z,21.83
2023-07-23T10:54:03.794Z,21.76
2023-07-23T10:56:39.917Z,21.84
2023-07-23T10:59:17.956Z,21.97
2023-07-23T11:01:46.949Z,22.04
2023-07-23T11:04:15.603Z,22.11
2023-07-23T11:06:56.872Z,22.19
2023-07-23T11:09:38.482Z,22.27
2023-07-23T11:12:07.047Z,22.27
2023-07-23T11:14:36.158Z,22.34
2023-07-23T11:17:04.935Z,22.30
2023-07-23T11:19:32.508Z,22.34
2023-07-23T11:22:03.910Z,22.37
2023-07-23T11:24:31.678Z,22.43
2023-07-23T11:27:01.014Z,22.52
2023-07-23T11:29:31.250Z,22.56
2023-07-23T11:32:01.923Z,22.58
2023-07-23T11:34:28.633Z,22.60
2023-07-23T11:36:57.175Z,22.70
2023-07-23T11:39:25.490Z,22.68
2023-07-23T11:41:53.211Z,22.68
2023-07-23T11:44:20.242Z,22.71
2023-07-23T11:46:46.850Z,22.77
2023-07-23T11:49:14.706Z,22.77
2023-07-23T11:51:41.558Z,22.90
2023-07-23T11:54:11.252Z,22.77
2023-07-23T11:56:48.992Z,22.78
2023-07-23T11:59:19.270Z,22.79
2023-07-23T12:01:46.892Z,22.84
2023-07-23T12:04:13.598Z,22.90
2023-07-23T12:06:41.347Z,22.87
2023-07-23T12:09:12.811Z,22.92
2023-07-23T12:11:42.758Z,23.09
2023-07-23T12:14:09.809Z,23.07
2023-07-23T12:16:44.668Z,23.21
2023-07-23T12:19:16.465Z,23.40
2023-07-23T12:21:45.361Z,23.57
2023-07-23T12:24:33.091Z,23.54
2023-07-23T12:27:00.923Z,23.40
2023-07-23T12:29:29.292Z,23.52
2023-07-23T12:32:16.328Z,23.26
2023-07-23T12:34:45.690Z,23.36
2023-07-23T12:37:13.194Z,23.31
2023-07-23T12:39:39.757Z,23.52
2023-07-23T12:42:06.566Z,23.63
2023-07-23T12:44:33.208Z,23.65
2023-07-23T12:46:59.999Z,24.11
2023-07-23T12:49:26.539Z,24.61
2023-07-23T12:51:53.052Z,25.13
2023-07-23T12:54:19.529Z,25.27
2023-07-23T12:56:46.082Z,25.58
2023-07-23T12:59:13.308Z,25.66
2023-07-23T13:01:39.946Z,25.74
2023-07-23T13:04:06.476Z,25.94
2023-07-23T13:06:33.109Z,26.40
2023-07-23T13:08:59.637Z,26.39
2023-07-23T13:11:26.084Z,26.12
2023-07-23T13:13:52.611Z,26.13
2023-07-23T13:16:25.179Z,25.94
2023-07-23T13:18:51.764Z,26.17
2023-07-23T13:21:18.283Z,26.07
2023-07-23T13:23:44.781Z,26.22
2023-07-23T13:26:11.818Z,26.05
2023-07-23T13:28:38.343Z,26.08
2023-07-23T13:31:04.896Z,26.16
2023-07-23T13:33:31.401Z,26.47
2023-07-23T13:35:58.022Z,26.75
2023-07-23T13:38:24.727Z,26.66
2023-07-23T13:40:51.965Z,26.68
2023-07-23T13:43:18.497Z,26.53
2023-07-23T13:45:45.030Z,26.47
2023-07-23T13:48:11.511Z,26.45
2023-07-23T13:50:50.411Z,26.37
2023-07-23T13:53:17.988Z,26.16
2023-07-23T13:55:44.546Z,25.96
2023-07-23T13:58:11.041Z,25.62
2023-07-23T14:00:37.655Z,25.45
2023-07-23T14:03:04.879Z,25.51
2023-07-23T14:05:32.487Z,25.54
2023-07-23T14:07:59.154Z,25.34
2023-07-23T14:10:26.192Z,25.16
2023-07-23T14:12:52.851Z,25.17
2023-07-23T14:15:19.431Z,24.94
2023-07-23T14:17:46.001Z,24.81
2023-07-23T14:20:12.575Z,24.62
2023-07-23T14:22:39.337Z,24.57
2023-07-23T14:25:06.009Z,24.65
2023-07-23T14:27:32.586Z,24.61
2023-07-23T14:29:59.124Z,24.73
2023-07-23T14:32:25.632Z,24.73
2023-07-23T14:34:52.248Z,24.84
2023-07-23T14:37:18.917Z,24.65
2023-07-23T14:39:45.565Z,24.71
2023-07-23T14:42:12.486Z,24.73
2023-07-23T14:44:41.012Z,24.86
2023-07-23T14:47:08.841Z,24.92
2023-07-23T14:49:37.463Z,24.95
2023-07-23T14:52:04.901Z,24.69
2023-07-23T14:54:31.467Z,24.61
2023-07-23T14:56:57.991Z,24.50
2023-07-23T14:59:24.480Z,24.43
2023-07-23T15:01:51.018Z,24.53
2023-07-23T15:04:17.686Z,24.56
2023-07-23T15:06:44.296Z,24.47
2023-07-23T15:09:13.260Z,24.56
2023-07-23T15:11:41.309Z,24.68
2023-07-23T15:14:08.258Z,24.62
2023-07-23T15:16:35.227Z,24.34
2023-07-23T15:19:02.211Z,24.31
2023-07-23T15:21:29.592Z,24.29
2023-07-23T15:23:56.909Z,24.19
2023-07-23T15:26:26.462Z,24.21
2023-07-23T15:28:57.204Z,24.13
2023-07-23T15:31:23.810Z,24.16
2023-07-23T15:33:50.328Z,24.26
2023-07-23T15:36:16.859Z,24.13
2023-07-23T15:38:43.302Z,23.97
2023-07-23T15:41:11.280Z,23.73
2023-07-23T15:43:37.863Z,23.71
2023-07-23T15:46:04.499Z,23.59
2023-07-23T15:48:31.049Z,23.66
2023-07-23T15:50:57.615Z,23.64
2023-07-23T15:53:24.119Z,23.58
2023-07-23T15:55:51.827Z,23.44
2023-07-23T15:58:18.323Z,23.48
2023-07-23T16:00:44.843Z,23.34
2023-07-23T16:03:11.515Z,23.31
2023-07-23T16:05:38.139Z,23.22
2023-07-23T16:08:04.972Z,23.38
2023-07-23T16:10:31.665Z,23.20
2023-07-23T16:12:58.209Z,23.10
2023-07-23T16:15:25.736Z,23.10
2023-07-23T16:17:52.415Z,23.13
2023-07-23T16:20:19.338Z,23.18
2023-07-23T16:22:45.840Z,23.23
2023-07-23T16:25:12.805Z,23.21
2023-07-23T16:27:39.314Z,23.29
2023-07-23T16:30:06.575Z,23.28
2023-07-23T16:32:37.740Z,23.31
2023-07-23T16:35:05.297Z,23.29
2023-07-23T16:37:37.743Z,23.37
2023-07-23T16:40:05.681Z,23.38
2023-07-23T16:42:32.462Z,23.30
2023-07-23T16:45:01.979Z,23.19
2023-07-23T16:47:28.543Z,23.14
2023-07-23T16:49:55.088Z,23.01
2023-07-23T16:52:21.604Z,23.11
2023-07-23T16:54:49.266Z,23.13
2023-07-23T16:57:15.823Z,23.23
2023-07-23T16:59:44.772Z,23.11
2023-07-23T17:02:13.281Z,23.06
2023-07-23T17:04:40.751Z,23.01
2023-07-23T17:07:07.256Z,23.02
2023-07-23T17:09:33.780Z,23.00
2023-07-23T17:12:00.321Z,22.97
2023-07-23T17:14:26.855Z,22.97
2023-07-23T17:16:53.413Z,23.07
2023-07-23T17:19:20.037Z,23.01
2023-07-23T17:21:46.662Z,23.01
2023-07-23T17:24:13.343Z,22.96
2023-07-23T17:26:40.376Z,22.92
2023-07-23T17:29:07.337Z,22.88
2023-07-23T17:31:33.790Z,22.85
2023-07-23T17:34:00.742Z,22.87
2023-07-23T17:36:28.088Z,22.90
2023-07-23T17:38:54.832Z,22.84
2023-07-23T17:41:21.379Z,22.82
2023-07-23T17:43:48.859Z,22.88
2023-07-23T17:46:15.545Z,22.88
2023-07-23T17:48:44.127Z,22.94
2023-07-23T17:51:10.590Z,22.94
2023-07-23T17:53:38.508Z,22.82
2023-07-23T17:56:05.917Z,22.79
2023-07-23T17:58:33.136Z,22.88
2023-07-23T18:00:59.696Z,22.83
2023-07-23T18:03:26.222Z,22.80
2023-07-23T18:05:59.959Z,22.76
2023-07-23T18:08:26.955Z,22.67
2023-07-23T18:10:53.519Z,22.64
2023-07-23T18:13:20.186Z,22.67
2023-07-23T18:15:47.265Z,22.74
2023-07-23T18:18:13.857Z,22.71
2023-07-23T18:20:40.350Z,22.68
2023-07-23T18:23:06.873Z,22.67
2023-07-23T18:25:33.770Z,22.69
2023-07-23T18:28:00.209Z,22.71
2023-07-23T18:30:26.715Z,22.78
2023-07-23T18:32:53.393Z,22.84
2023-07-23T18:35:20.011Z,22.84
2023-07-23T18:37:47.455Z,22.89
2023-07-23T18:40:13.944Z,22.89
2023-07-23T18:42:40.582Z,22.92
2023-07-23T18:45:07.884Z,22.95
2023-07-23T18:47:34.438Z,22.93
2023-07-23T18:50:01.002Z,22.94
2023-07-23T18:52:28.671Z,22.95
2023-07-23T18:54:55.698Z,22.93
2023-07-23T18:57:22.207Z,22.95
2023-07-23T18:59:48.816Z,22.97
2023-07-23T19:02:15.394Z,22.99
2023-07-23T19:04:46.653Z,22.98
2023-07-23T19:07:14.123Z,23.00
2023-07-23T19:09:40.950Z,22.98
2023-07-23T19:12:07.964Z,22.97
2023-07-23T19:14:34.556Z,22.94
2023-07-23T19:17:01.149Z,22.95
2023-07-23T19:19:28.410Z,22.94
2023-07-23T19:21:54.978Z,22.90
2023-07-23T19:24:21.557Z,22.86
2023-07-23T19:26:48.125Z,22.85
2023-07-23T19:29:14.576Z,22.83
2023-07-23T19:31:42.566Z,22.74
2023-07-23T19:34:09.334Z,22.72
2023-07-23T19:36:35.882Z,22.72
2023-07-23T19:39:02.436Z,22.68
2023-07-23T19:41:28.920Z,22.66
2023-07-23T19:43:55.441Z,22.67
2023-07-23T19:46:21.967Z,22.67
2023-07-23T19:48:48.576Z,22.69
2023-07-23T19:51:15.103Z,22.70
2023-07-23T19:53:41.702Z,22.71
2023-07-23T19:56:08.278Z,22.70
2023-07-23T19:58:34.748Z,22.72
2023-07-23T20:01:01.239Z,22.72
2023-07-23T20:03:27.775Z,22.70
2023-07-23T20:05:54.764Z,22.63
2023-07-23T20:08:21.253Z,22.61
2023-07-23T20:10:47.856Z,22.62
2023-07-23T20:13:14.361Z,22.57
2023-07-23T20:15:40.865Z,22.53
2023-07-23T20:18:07.406Z,22.47
2023-07-23T20:20:33.967Z,22.46
2023-07-23T20:23:00.487Z,22.46
2023-07-23T20:25:27.042Z,22.42
2023-07-23T20:27:53.565Z,22.37
2023-07-23T20:30:20.697Z,22.33
2023-07-23T20:32:48.308Z,22.35
2023-07-23T20:35:16.858Z,22.35
2023-07-23T20:37:43.906Z,22.33
2023-07-23T20:40:11.043Z,22.27
2023-07-23T20:42:37.767Z,22.32
2023-07-23T20:45:04.735Z,22.30
2023-07-23T20:47:31.366Z,22.32
2023-07-23T20:49:57.907Z,22.33
2023-07-23T20:52:24.504Z,22.29
2023-07-23T20:54:50.980Z,22.30
2023-07-23T20:57:17.511Z,22.32
2023-07-23T20:59:44.058Z,22.32
2023-07-23T21:02:10.558Z,22.27
2023-07-23T21:04:37.072Z,22.29
2023-07-23T21:07:03.864Z,22.29
2023-07-23T21:09:31.133Z,22.30
2023-07-23T21:11:58.395Z,22.31
2023-07-23T21:14:24.909Z,22.31
2023-07-23T21:16:51.418Z,22.28
2023-07-23T21:19:17.896Z,22.25
2023-07-23T21:21:44.424Z,22.26
2023-07-23T21:24:10.944Z,22.24
2023-07-23T21:26:39.429Z,22.21
2023-07-23T21:29:05.886Z,22.18
2023-07-23T21:31:32.401Z,22.23
2023-07-23T21:33:58.875Z,22.23
2023-07-23T21:36:25.400Z,22.25
2023-07-23T21:38:52.190Z,22.23
2023-07-23T21:41:18.670Z,22.18
2023-07-23T21:43:45.173Z,22.22
2023-07-23T21:46:11.738Z,22.21
2023-07-23T21:48:38.350Z,22.21
2023-07-23T21:51:04.826Z,22.19
2023-07-23T21:53:31.474Z,22.16
2023-07-23T21:55:57.958Z,22.13
2023-07-23T21:58:24.579Z,22.09
2023-07-23T22:00:51.080Z,22.06
2023-07-23T22:03:18.121Z,22.02
2023-07-23T22:05:47.664Z,22.00
2023-07-23T22:08:15.135Z,21.99
2023-07-23T22:10:41.787Z,21.95
2023-07-23T22:13:08.399Z,21.95
2023-07-23T22:15:34.874Z,21.94
2023-07-23T22:18:01.421Z,21.93
2023-07-23T22:20:27.972Z,21.92
2023-07-23T22:22:54.544Z,21.92
2023-07-23T22:25:21.029Z,21.90
2023-07-23T22:27:47.574Z,21.91
2023-07-23T22:30:28.982Z,21.91
2023-07-23T22:32:57.755Z,21.90
2023-07-23T22:35:24.385Z,21.88
2023-07-23T22:37:50.869Z,21.84
2023-07-23T22:40:17.361Z,21.78
2023-07-23T22:42:46.775Z,21.74
2023-07-23T22:45:14.530Z,21.69
2023-07-23T22:47:41.137Z,21.64
2023-07-23T22:50:07.926Z,21.58
2023-07-23T22:52:37.317Z,21.52
2023-07-23T22:55:04.415Z,21.47
2023-07-23T22:57:31.564Z,21.42
2023-07-23T23:00:01.342Z,21.36
2023-07-23T23:02:28.069Z,21.31
2023-07-23T23:04:54.604Z,21.26
2023-07-23T23:07:21.113Z,21.17
2023-07-23T23:09:47.711Z,21.13
2023-07-23T23:12:14.231Z,21.07
2023-07-23T23:14:40.716Z,21.02
2023-07-23T23:17:07.244Z,20.99
2023-07-23T23:19:33.751Z,20.95
2023-07-23T23:22:00.210Z,20.92
2023-07-23T23:24:26.723Z,20.90
2023-07-23T23:26:53.207Z,20.88
2023-07-23T23:29:20.169Z,20.88
2023-07-23T23:31:46.740Z,20.83
2023-07-23T23:34:13.261Z,20.78
2023-07-23T23:36:39.789Z,20.76
2023-07-23T23:39:06.423Z,20.75
2023-07-23T23:41:32.913Z,20.74
2023-07-23T23:43:59.390Z,20.74
2023-07-23T23:46:26.077Z,20.74
2023-07-23T23:48:52.645Z,20.72
2023-07-23T23:51:21.266Z,20.71
2023-07-23T23:53:47.976Z,20.68
2023-07-23T23:56:14.571Z,20.66
2023-07-23T23:58:41.109Z,20.65
